sensor_id;sensor_type;location;lat;lon;timestamp;pressure;altitude;pressure_sealevel;temperature;humidity
40384;BME280;26097;42.366;23.818;2023-05-03T00:01:27;94514.22;;;9.28;61.75
40384;BME280;26097;42.366;23.818;2023-05-03T00:04:28;94523.75;;;9.28;62.04
40384;BME280;26097;42.366;23.818;2023-05-03T00:07:28;94525.00;;;9.22;62.15
40384;BME280;26097;42.366;23.818;2023-05-03T00:10:29;94518.03;;;9.23;62.88
40384;BME280;26097;42.366;23.818;2023-05-03T00:13:29;94533.63;;;9.23;62.24
40384;BME280;26097;42.366;23.818;2023-05-03T00:16:30;94549.53;;;9.18;62.69
40384;BME280;26097;42.366;23.818;2023-05-03T00:19:30;94547.84;;;9.17;63.40
40384;BME280;26097;42.366;23.818;2023-05-03T00:22:32;94548.06;;;9.14;63.24
40384;BME280;26097;42.366;23.818;2023-05-03T00:25:33;94529.31;;;9.09;62.81
40384;BME280;26097;42.366;23.818;2023-05-03T00:28:34;94523.47;;;9.05;63.44
40384;BME280;26097;42.366;23.818;2023-05-03T00:31:34;94510.53;;;9.04;63.90
40384;BME280;26097;42.366;23.818;2023-05-03T00:34:35;94488.19;;;9.01;64.49
40384;BME280;26097;42.366;23.818;2023-05-03T00:37:36;94483.06;;;8.99;66.47
40384;BME280;26097;42.366;23.818;2023-05-03T00:40:36;94484.75;;;9.00;63.88
40384;BME280;26097;42.366;23.818;2023-05-03T00:43:37;94497.66;;;9.02;64.15
40384;BME280;26097;42.366;23.818;2023-05-03T00:46:37;94482.06;;;9.02;63.92
40384;BME280;26097;42.366;23.818;2023-05-03T00:49:38;94487.66;;;8.96;64.47
40384;BME280;26097;42.366;23.818;2023-05-03T00:52:39;94479.78;;;8.83;65.02
40384;BME280;26097;42.366;23.818;2023-05-03T00:55:40;94479.44;;;8.75;65.12
40384;BME280;26097;42.366;23.818;2023-05-03T00:58:42;94499.50;;;8.58;66.96
40384;BME280;26097;42.366;23.818;2023-05-03T01:01:44;94501.53;;;8.38;66.93
40384;BME280;26097;42.366;23.818;2023-05-03T01:04:47;94510.41;;;8.20;68.77
40384;BME280;26097;42.366;23.818;2023-05-03T01:11:16;94492.13;;;7.92;74.66
40384;BME280;26097;42.366;23.818;2023-05-03T01:14:35;94500.53;;;7.81;75.90
40384;BME280;26097;42.366;23.818;2023-05-03T01:17:51;94501.81;;;7.74;79.49
40384;BME280;26097;42.366;23.818;2023-05-03T01:20:54;94510.97;;;7.65;83.04
40384;BME280;26097;42.366;23.818;2023-05-03T01:26:58;94510.50;;;7.58;84.36
40384;BME280;26097;42.366;23.818;2023-05-03T01:29:58;94502.63;;;7.60;83.90
40384;BME280;26097;42.366;23.818;2023-05-03T01:36:35;94485.47;;;7.57;89.19
40384;BME280;26097;42.366;23.818;2023-05-03T01:39:45;94478.06;;;7.51;90.48
40384;BME280;26097;42.366;23.818;2023-05-03T01:42:49;94480.53;;;7.53;86.88
40384;BME280;26097;42.366;23.818;2023-05-03T01:45:49;94469.78;;;7.45;98.30
40384;BME280;26097;42.366;23.818;2023-05-03T01:48:50;94465.72;;;7.40;91.82
40384;BME280;26097;42.366;23.818;2023-05-03T01:51:50;94473.50;;;7.40;93.74
40384;BME280;26097;42.366;23.818;2023-05-03T01:54:51;94465.47;;;7.29;99.10
40384;BME280;26097;42.366;23.818;2023-05-03T01:57:51;94454.44;;;7.25;98.20
40384;BME280;26097;42.366;23.818;2023-05-03T02:00:51;94456.38;;;7.22;99.33
40384;BME280;26097;42.366;23.818;2023-05-03T02:03:52;94453.06;;;7.20;98.47
40384;BME280;26097;42.366;23.818;2023-05-03T02:06:52;94446.09;;;7.20;96.87
40384;BME280;26097;42.366;23.818;2023-05-03T02:09:52;94456.63;;;7.17;100.00
40384;BME280;26097;42.366;23.818;2023-05-03T02:12:53;94469.22;;;7.09;100.00
40384;BME280;26097;42.366;23.818;2023-05-03T02:15:53;94460.94;;;7.02;100.00
40384;BME280;26097;42.366;23.818;2023-05-03T02:18:54;94455.25;;;6.95;100.00
40384;BME280;26097;42.366;23.818;2023-05-03T02:21:58;94458.84;;;6.93;100.00
40384;BME280;26097;42.366;23.818;2023-05-03T02:24:58;94456.25;;;6.93;100.00
40384;BME280;26097;42.366;23.818;2023-05-03T02:27:59;94457.28;;;6.90;100.00
40384;BME280;26097;42.366;23.818;2023-05-03T02:31:00;94462.28;;;6.93;100.00
40384;BME280;26097;42.366;23.818;2023-05-03T02:34:00;94460.63;;;6.92;100.00
40384;BME280;26097;42.366;23.818;2023-05-03T02:37:01;94462.78;;;7.00;100.00
40384;BME280;26097;42.366;23.818;2023-05-03T02:40:01;94464.34;;;7.03;100.00
40384;BME280;26097;42.366;23.818;2023-05-03T02:43:01;94467.63;;;7.06;100.00
40384;BME280;26097;42.366;23.818;2023-05-03T02:46:02;94473.47;;;7.10;100.00
40384;BME280;26097;42.366;23.818;2023-05-03T02:49:03;94477.31;;;7.03;100.00
40384;BME280;26097;42.366;23.818;2023-05-03T02:52:03;94482.91;;;7.11;100.00
40384;BME280;26097;42.366;23.818;2023-05-03T02:55:04;94487.06;;;7.13;100.00
40384;BME280;26097;42.366;23.818;2023-05-03T02:58:05;94487.19;;;7.12;100.00
40384;BME280;26097;42.366;23.818;2023-05-03T03:01:06;94487.19;;;7.12;100.00
40384;BME280;26097;42.366;23.818;2023-05-03T03:04:07;94488.19;;;7.09;100.00
40384;BME280;26097;42.366;23.818;2023-05-03T03:07:07;94487.34;;;7.09;100.00
40384;BME280;26097;42.366;23.818;2023-05-03T03:10:08;94498.28;;;7.14;100.00
40384;BME280;26097;42.366;23.818;2023-05-03T03:13:08;94501.56;;;7.18;100.00
40384;BME280;26097;42.366;23.818;2023-05-03T03:16:09;94509.16;;;7.21;100.00
40384;BME280;26097;42.366;23.818;2023-05-03T03:19:09;94514.06;;;7.25;100.00
40384;BME280;26097;42.366;23.818;2023-05-03T03:22:10;94514.06;;;7.25;100.00
40384;BME280;26097;42.366;23.818;2023-05-03T03:25:10;94512.16;;;7.29;100.00
40384;BME280;26097;42.366;23.818;2023-05-03T03:28:11;94513.56;;;7.35;100.00
40384;BME280;26097;42.366;23.818;2023-05-03T03:31:11;94503.88;;;7.38;100.00
40384;BME280;26097;42.366;23.818;2023-05-03T03:34:12;94517.56;;;7.40;100.00
40384;BME280;26097;42.366;23.818;2023-05-03T03:37:14;94514.88;;;7.42;100.00
40384;BME280;26097;42.366;23.818;2023-05-03T03:40:14;94521.75;;;7.43;100.00
40384;BME280;26097;42.366;23.818;2023-05-03T03:43:15;94533.78;;;7.44;100.00
40384;BME280;26097;42.366;23.818;2023-05-03T03:46:16;94541.75;;;7.41;100.00
40384;BME280;26097;42.366;23.818;2023-05-03T03:49:16;94535.63;;;7.42;100.00
40384;BME280;26097;42.366;23.818;2023-05-03T03:52:16;94542.47;;;7.43;100.00
40384;BME280;26097;42.366;23.818;2023-05-03T03:55:17;94551.88;;;7.46;100.00
40384;BME280;26097;42.366;23.818;2023-05-03T03:58:17;94551.00;;;7.45;100.00
40384;BME280;26097;42.366;23.818;2023-05-03T04:01:18;94554.38;;;7.47;100.00
40384;BME280;26097;42.366;23.818;2023-05-03T04:04:18;94560.38;;;7.48;100.00
40384;BME280;26097;42.366;23.818;2023-05-03T04:07:19;94569.59;;;7.53;100.00
40384;BME280;26097;42.366;23.818;2023-05-03T04:10:20;94577.03;;;7.60;100.00
40384;BME280;26097;42.366;23.818;2023-05-03T04:13:21;94576.09;;;7.61;100.00
40384;BME280;26097;42.366;23.818;2023-05-03T04:16:21;94576.78;;;7.64;100.00
40384;BME280;26097;42.366;23.818;2023-05-03T04:19:22;94585.97;;;7.70;100.00
40384;BME280;26097;42.366;23.818;2023-05-03T04:22:24;94592.53;;;7.76;100.00
40384;BME280;26097;42.366;23.818;2023-05-03T04:25:24;94597.66;;;7.77;100.00
40384;BME280;26097;42.366;23.818;2023-05-03T04:28:25;94596.75;;;7.78;100.00
40384;BME280;26097;42.366;23.818;2023-05-03T04:31:26;94599.56;;;7.90;100.00
40384;BME280;26097;42.366;23.818;2023-05-03T04:34:27;94592.59;;;7.90;100.00
40384;BME280;26097;42.366;23.818;2023-05-03T04:37:29;94598.22;;;7.98;100.00
40384;BME280;26097;42.366;23.818;2023-05-03T04:40:29;94594.59;;;8.01;100.00
40384;BME280;26097;42.366;23.818;2023-05-03T04:43:30;94585.38;;;7.95;100.00
40384;BME280;26097;42.366;23.818;2023-05-03T04:46:32;94592.56;;;8.06;100.00
40384;BME280;26097;42.366;23.818;2023-05-03T04:49:33;94591.94;;;8.17;100.00
40384;BME280;26097;42.366;23.818;2023-05-03T04:52:33;94589.75;;;8.40;100.00
40384;BME280;26097;42.366;23.818;2023-05-03T04:55:34;94584.06;;;8.78;100.00
40384;BME280;26097;42.366;23.818;2023-05-03T04:58:35;94583.75;;;8.97;100.00
40384;BME280;26097;42.366;23.818;2023-05-03T05:01:36;94578.13;;;9.18;100.00
40384;BME280;26097;42.366;23.818;2023-05-03T05:04:36;94579.44;;;9.25;100.00
40384;BME280;26097;42.366;23.818;2023-05-03T05:07:36;94565.09;;;9.33;100.00
40384;BME280;26097;42.366;23.818;2023-05-03T05:10:39;94570.78;;;9.25;100.00
40384;BME280;26097;42.366;23.818;2023-05-03T05:13:40;94560.69;;;9.48;100.00
40384;BME280;26097;42.366;23.818;2023-05-03T05:16:40;94568.41;;;9.49;100.00
40384;BME280;26097;42.366;23.818;2023-05-03T05:19:41;94563.69;;;9.69;100.00
40384;BME280;26097;42.366;23.818;2023-05-03T05:22:41;94566.13;;;9.57;100.00
40384;BME280;26097;42.366;23.818;2023-05-03T05:25:42;94572.88;;;9.47;100.00
40384;BME280;26097;42.366;23.818;2023-05-03T05:28:42;94567.41;;;9.37;100.00
40384;BME280;26097;42.366;23.818;2023-05-03T05:31:42;94564.16;;;9.34;100.00
40384;BME280;26097;42.366;23.818;2023-05-03T05:34:43;94564.81;;;8.95;100.00
40384;BME280;26097;42.366;23.818;2023-05-03T05:37:44;94559.41;;;8.98;100.00
40384;BME280;26097;42.366;23.818;2023-05-03T05:40:45;94559.84;;;9.20;100.00
40384;BME280;26097;42.366;23.818;2023-05-03T05:43:45;94567.66;;;9.20;100.00
40384;BME280;26097;42.366;23.818;2023-05-03T05:46:46;94573.66;;;9.20;100.00
40384;BME280;26097;42.366;23.818;2023-05-03T05:49:46;94568.47;;;9.20;100.00
40384;BME280;26097;42.366;23.818;2023-05-03T05:52:50;94582.22;;;9.22;100.00
40384;BME280;26097;42.366;23.818;2023-05-03T05:55:51;94580.38;;;9.24;100.00
40384;BME280;26097;42.366;23.818;2023-05-03T05:58:51;94592.78;;;9.34;100.00
40384;BME280;26097;42.366;23.818;2023-05-03T06:01:52;94605.31;;;9.41;100.00
40384;BME280;26097;42.366;23.818;2023-05-03T06:04:52;94612.91;;;9.45;100.00
40384;BME280;26097;42.366;23.818;2023-05-03T06:07:53;94609.00;;;9.52;100.00
40384;BME280;26097;42.366;23.818;2023-05-03T06:10:53;94600.56;;;9.48;100.00
40384;BME280;26097;42.366;23.818;2023-05-03T06:13:54;94608.25;;;9.50;100.00
40384;BME280;26097;42.366;23.818;2023-05-03T06:16:56;94597.59;;;9.67;100.00
40384;BME280;26097;42.366;23.818;2023-05-03T06:19:57;94601.41;;;9.89;100.00
40384;BME280;26097;42.366;23.818;2023-05-03T06:22:58;94588.34;;;10.04;100.00
40384;BME280;26097;42.366;23.818;2023-05-03T06:25:58;94590.41;;;9.98;100.00
40384;BME280;26097;42.366;23.818;2023-05-03T06:28:58;94590.41;;;9.98;100.00
40384;BME280;26097;42.366;23.818;2023-05-03T06:31:59;94586.59;;;10.04;100.00
40384;BME280;26097;42.366;23.818;2023-05-03T06:35:00;94583.28;;;10.28;99.18
40384;BME280;26097;42.366;23.818;2023-05-03T06:38:01;94584.69;;;10.60;99.63
40384;BME280;26097;42.366;23.818;2023-05-03T06:41:01;94584.59;;;10.61;97.99
40384;BME280;26097;42.366;23.818;2023-05-03T06:44:01;94576.94;;;10.58;98.87
40384;BME280;26097;42.366;23.818;2023-05-03T06:47:03;94567.06;;;10.76;98.33
40384;BME280;26097;42.366;23.818;2023-05-03T06:50:04;94581.03;;;10.75;96.70
40384;BME280;26097;42.366;23.818;2023-05-03T06:53:04;94589.06;;;10.72;98.28
40384;BME280;26097;42.366;23.818;2023-05-03T06:56:05;94593.84;;;10.78;97.61
40384;BME280;26097;42.366;23.818;2023-05-03T06:59:06;94601.25;;;10.71;98.32
40384;BME280;26097;42.366;23.818;2023-05-03T07:02:07;94598.94;;;10.67;98.12
40384;BME280;26097;42.366;23.818;2023-05-03T07:05:08;94584.00;;;11.08;97.69
40384;BME280;26097;42.366;23.818;2023-05-03T07:08:08;94580.78;;;11.41;94.26
40384;BME280;26097;42.366;23.818;2023-05-03T07:11:09;94584.16;;;11.31;90.09
40384;BME280;26097;42.366;23.818;2023-05-03T07:14:09;94590.59;;;11.00;94.08
40384;BME280;26097;42.366;23.818;2023-05-03T07:17:10;94584.91;;;10.56;97.60
40384;BME280;26097;42.366;23.818;2023-05-03T07:20:10;94571.97;;;10.81;95.38
40384;BME280;26097;42.366;23.818;2023-05-03T07:23:11;94562.16;;;10.59;97.03
40384;BME280;26097;42.366;23.818;2023-05-03T07:26:11;94552.56;;;10.72;96.94
40384;BME280;26097;42.366;23.818;2023-05-03T07:29:12;94556.72;;;10.75;97.03
40384;BME280;26097;42.366;23.818;2023-05-03T07:32:12;94541.69;;;10.78;97.22
40384;BME280;26097;42.366;23.818;2023-05-03T07:35:13;94532.75;;;11.44;95.05
40384;BME280;26097;42.366;23.818;2023-05-03T07:38:14;94543.75;;;12.32;89.64
40384;BME280;26097;42.366;23.818;2023-05-03T07:41:14;94538.34;;;12.81;85.61
40384;BME280;26097;42.366;23.818;2023-05-03T07:44:14;94544.75;;;12.99;86.00
40384;BME280;26097;42.366;23.818;2023-05-03T07:47:15;94544.75;;;12.99;83.84
40384;BME280;26097;42.366;23.818;2023-05-03T07:50:15;94547.72;;;12.61;83.71
40384;BME280;26097;42.366;23.818;2023-05-03T07:53:16;94547.94;;;12.35;85.72
40384;BME280;26097;42.366;23.818;2023-05-03T07:56:16;94541.28;;;12.42;86.31
40384;BME280;26097;42.366;23.818;2023-05-03T07:59:16;94541.72;;;12.24;86.65
40384;BME280;26097;42.366;23.818;2023-05-03T08:02:17;94539.78;;;12.62;83.41
40384;BME280;26097;42.366;23.818;2023-05-03T08:05:17;94539.53;;;12.88;82.46
40384;BME280;26097;42.366;23.818;2023-05-03T08:08:18;94549.06;;;12.78;82.19
40384;BME280;26097;42.366;23.818;2023-05-03T08:11:18;94536.38;;;13.28;81.07
40384;BME280;26097;42.366;23.818;2023-05-03T08:14:19;94532.28;;;13.91;76.43
40384;BME280;26097;42.366;23.818;2023-05-03T08:17:20;94536.34;;;13.51;74.65
40384;BME280;26097;42.366;23.818;2023-05-03T08:20:21;94509.91;;;14.08;72.39
40384;BME280;26097;42.366;23.818;2023-05-03T08:23:22;94511.38;;;13.36;74.49
40384;BME280;26097;42.366;23.818;2023-05-03T08:26:23;94505.91;;;13.39;74.32
40384;BME280;26097;42.366;23.818;2023-05-03T08:29:23;94510.91;;;13.31;75.95
40384;BME280;26097;42.366;23.818;2023-05-03T08:32:23;94535.25;;;12.98;75.86
40384;BME280;26097;42.366;23.818;2023-05-03T08:35:25;94525.69;;;13.20;77.23
40384;BME280;26097;42.366;23.818;2023-05-03T08:38:27;94529.19;;;13.53;76.44
40384;BME280;26097;42.366;23.818;2023-05-03T08:41:29;94515.66;;;13.48;73.02
40384;BME280;26097;42.366;23.818;2023-05-03T08:44:30;94502.50;;;13.92;73.50
40384;BME280;26097;42.366;23.818;2023-05-03T08:47:35;94499.56;;;14.07;74.38
40384;BME280;26097;42.366;23.818;2023-05-03T08:50:38;94483.31;;;13.92;74.01
40384;BME280;26097;42.366;23.818;2023-05-03T08:53:41;94487.00;;;14.84;69.92
40384;BME280;26097;42.366;23.818;2023-05-03T08:56:42;94485.69;;;14.37;69.25
40384;BME280;26097;42.366;23.818;2023-05-03T08:59:47;94484.69;;;14.69;69.13
40384;BME280;26097;42.366;23.818;2023-05-03T09:02:48;94489.41;;;14.66;69.71
40384;BME280;26097;42.366;23.818;2023-05-03T09:05:50;94473.97;;;14.73;70.77
40384;BME280;26097;42.366;23.818;2023-05-03T09:08:51;94486.66;;;14.98;70.64
40384;BME280;26097;42.366;23.818;2023-05-03T09:11:52;94484.06;;;14.77;71.63
40384;BME280;26097;42.366;23.818;2023-05-03T09:14:52;94473.28;;;15.11;69.21
40384;BME280;26097;42.366;23.818;2023-05-03T09:18:18;94472.19;;;15.14;72.07
40384;BME280;26097;42.366;23.818;2023-05-03T09:21:19;94476.25;;;14.56;72.05
40384;BME280;26097;42.366;23.818;2023-05-03T09:24:20;94480.41;;;14.90;71.29
40384;BME280;26097;42.366;23.818;2023-05-03T09:27:22;94475.72;;;15.03;70.00
40384;BME280;26097;42.366;23.818;2023-05-03T09:30:23;94487.69;;;15.27;67.05
40384;BME280;26097;42.366;23.818;2023-05-03T09:33:30;94492.66;;;15.30;68.68
40384;BME280;26097;42.366;23.818;2023-05-03T09:36:45;94488.03;;;15.03;65.80
40384;BME280;26097;42.366;23.818;2023-05-03T09:39:46;94478.81;;;15.18;69.78
40384;BME280;26097;42.366;23.818;2023-05-03T09:46:12;94468.72;;;15.23;66.57
40384;BME280;26097;42.366;23.818;2023-05-03T09:49:13;94490.31;;;14.86;69.73
40384;BME280;26097;42.366;23.818;2023-05-03T09:52:14;94493.66;;;14.88;70.20
40384;BME280;26097;42.366;23.818;2023-05-03T09:55:18;94502.38;;;14.15;71.03
40384;BME280;26097;42.366;23.818;2023-05-03T09:58:19;94492.84;;;13.93;75.20
40384;BME280;26097;42.366;23.818;2023-05-03T10:01:22;94489.47;;;14.02;72.34
40384;BME280;26097;42.366;23.818;2023-05-03T10:04:26;94474.97;;;13.65;75.85
40384;BME280;26097;42.366;23.818;2023-05-03T10:07:27;94477.00;;;13.94;75.28
40384;BME280;26097;42.366;23.818;2023-05-03T10:10:31;94496.97;;;13.74;75.64
40384;BME280;26097;42.366;23.818;2023-05-03T10:13:34;94489.06;;;13.85;76.30
40384;BME280;26097;42.366;23.818;2023-05-03T10:16:36;94482.63;;;13.90;76.03
40384;BME280;26097;42.366;23.818;2023-05-03T10:19:46;94498.63;;;13.54;78.34
40384;BME280;26097;42.366;23.818;2023-05-03T10:23:06;94496.03;;;13.96;77.98
40384;BME280;26097;42.366;23.818;2023-05-03T10:32:37;94489.72;;;14.20;76.17
40384;BME280;26097;42.366;23.818;2023-05-03T10:35:42;94500.13;;;14.10;75.97
40384;BME280;26097;42.366;23.818;2023-05-03T10:38:51;94496.69;;;13.89;77.21
40384;BME280;26097;42.366;23.818;2023-05-03T10:42:01;94501.91;;;13.89;75.89
40384;BME280;26097;42.366;23.818;2023-05-03T10:45:02;94491.69;;;13.85;75.80
40384;BME280;26097;42.366;23.818;2023-05-03T10:54:29;94478.06;;;14.34;74.20
40384;BME280;26097;42.366;23.818;2023-05-03T10:57:30;94490.50;;;14.63;72.47
40384;BME280;26097;42.366;23.818;2023-05-03T11:06:39;94494.03;;;14.31;74.64
40384;BME280;26097;42.366;23.818;2023-05-03T11:09:45;94488.44;;;14.14;76.09
40384;BME280;26097;42.366;23.818;2023-05-03T11:12:47;94488.00;;;14.09;75.62
40384;BME280;26097;42.366;23.818;2023-05-03T11:15:47;94478.91;;;14.13;77.19
40384;BME280;26097;42.366;23.818;2023-05-03T11:18:49;94467.34;;;13.95;77.05
40384;BME280;26097;42.366;23.818;2023-05-03T11:21:50;94461.22;;;14.06;78.68
40384;BME280;26097;42.366;23.818;2023-05-03T11:24:51;94447.22;;;14.17;77.65
40384;BME280;26097;42.366;23.818;2023-05-03T11:27:51;94452.41;;;14.69;73.91
40384;BME280;26097;42.366;23.818;2023-05-03T11:30:52;94460.66;;;14.64;74.58
40384;BME280;26097;42.366;23.818;2023-05-03T11:33:54;94456.22;;;14.55;76.43
40384;BME280;26097;42.366;23.818;2023-05-03T11:36:54;94456.13;;;15.07;74.11
40384;BME280;26097;42.366;23.818;2023-05-03T11:39:57;94452.31;;;15.80;69.59
40384;BME280;26097;42.366;23.818;2023-05-03T11:42:58;94446.63;;;15.85;66.95
40384;BME280;26097;42.366;23.818;2023-05-03T11:45:59;94435.97;;;15.27;71.13
40384;BME280;26097;42.366;23.818;2023-05-03T11:49:00;94432.66;;;15.45;70.20
40384;BME280;26097;42.366;23.818;2023-05-03T11:52:01;94446.19;;;15.40;70.29
40384;BME280;26097;42.366;23.818;2023-05-03T11:55:02;94438.91;;;14.74;71.74
40384;BME280;26097;42.366;23.818;2023-05-03T11:58:07;94435.81;;;14.68;74.66
40384;BME280;26097;42.366;23.818;2023-05-03T12:01:07;94432.69;;;14.43;74.41
40384;BME280;26097;42.366;23.818;2023-05-03T12:04:08;94432.81;;;14.11;77.31
40384;BME280;26097;42.366;23.818;2023-05-03T12:07:10;94429.34;;;13.79;78.45
40384;BME280;26097;42.366;23.818;2023-05-03T12:10:12;94437.56;;;13.42;79.97
40384;BME280;26097;42.366;23.818;2023-05-03T12:13:13;94439.09;;;13.12;82.60
40384;BME280;26097;42.366;23.818;2023-05-03T12:16:13;94432.66;;;13.16;84.84
40384;BME280;26097;42.366;23.818;2023-05-03T12:19:28;94433.47;;;12.73;95.61
40384;BME280;26097;42.366;23.818;2023-05-03T12:22:29;94430.16;;;12.36;100.00
40384;BME280;26097;42.366;23.818;2023-05-03T12:25:31;94427.81;;;12.22;100.00
40384;BME280;26097;42.366;23.818;2023-05-03T12:28:31;94426.31;;;11.95;100.00
40384;BME280;26097;42.366;23.818;2023-05-03T12:31:33;94422.50;;;11.88;100.00
40384;BME280;26097;42.366;23.818;2023-05-03T12:34:33;94422.34;;;12.02;100.00
40384;BME280;26097;42.366;23.818;2023-05-03T12:37:35;94415.56;;;12.11;100.00
40384;BME280;26097;42.366;23.818;2023-05-03T12:40:35;94419.78;;;12.00;100.00
40384;BME280;26097;42.366;23.818;2023-05-03T12:43:35;94412.97;;;11.64;100.00
40384;BME280;26097;42.366;23.818;2023-05-03T12:46:36;94406.44;;;11.58;100.00
40384;BME280;26097;42.366;23.818;2023-05-03T12:49:37;94414.78;;;11.39;100.00
40384;BME280;26097;42.366;23.818;2023-05-03T12:52:37;94410.00;;;11.21;100.00
40384;BME280;26097;42.366;23.818;2023-05-03T12:55:38;94407.50;;;10.95;100.00
40384;BME280;26097;42.366;23.818;2023-05-03T12:58:39;94413.38;;;10.86;100.00
40384;BME280;26097;42.366;23.818;2023-05-03T13:01:41;94415.69;;;10.78;100.00
40384;BME280;26097;42.366;23.818;2023-05-03T13:04:41;94424.81;;;10.72;100.00
40384;BME280;26097;42.366;23.818;2023-05-03T13:07:42;94420.13;;;10.64;100.00
40384;BME280;26097;42.366;23.818;2023-05-03T13:10:42;94416.38;;;10.68;100.00
40384;BME280;26097;42.366;23.818;2023-05-03T13:13:43;94414.94;;;10.64;100.00
40384;BME280;26097;42.366;23.818;2023-05-03T13:16:43;94408.69;;;10.54;100.00
40384;BME280;26097;42.366;23.818;2023-05-03T13:19:49;94388.88;;;10.38;100.00
40384;BME280;26097;42.366;23.818;2023-05-03T13:22:50;94386.00;;;10.30;100.00
40384;BME280;26097;42.366;23.818;2023-05-03T13:25:51;94390.34;;;10.29;100.00
40384;BME280;26097;42.366;23.818;2023-05-03T13:28:53;94402.88;;;10.24;100.00
40384;BME280;26097;42.366;23.818;2023-05-03T13:31:53;94398.50;;;10.12;100.00
40384;BME280;26097;42.366;23.818;2023-05-03T13:34:54;94393.84;;;10.04;100.00
40384;BME280;26097;42.366;23.818;2023-05-03T13:37:54;94396.44;;;9.91;100.00
40384;BME280;26097;42.366;23.818;2023-05-03T13:40:55;94392.38;;;10.00;100.00
40384;BME280;26097;42.366;23.818;2023-05-03T13:43:55;94390.84;;;9.97;100.00
40384;BME280;26097;42.366;23.818;2023-05-03T13:46:55;94389.59;;;10.03;100.00
40384;BME280;26097;42.366;23.818;2023-05-03T13:49:56;94397.41;;;10.03;100.00
40384;BME280;26097;42.366;23.818;2023-05-03T13:52:56;94402.28;;;9.95;100.00
40384;BME280;26097;42.366;23.818;2023-05-03T13:55:57;94398.53;;;9.86;100.00
40384;BME280;26097;42.366;23.818;2023-05-03T13:58:57;94398.84;;;9.81;100.00
40384;BME280;26097;42.366;23.818;2023-05-03T14:01:58;94406.44;;;9.71;100.00
40384;BME280;26097;42.366;23.818;2023-05-03T14:04:59;94415.91;;;9.60;100.00
40384;BME280;26097;42.366;23.818;2023-05-03T14:07:59;94411.22;;;9.52;100.00
40384;BME280;26097;42.366;23.818;2023-05-03T14:11:00;94398.13;;;9.53;100.00
40384;BME280;26097;42.366;23.818;2023-05-03T14:14:00;94396.59;;;9.64;100.00
40384;BME280;26097;42.366;23.818;2023-05-03T14:17:01;94419.88;;;9.65;100.00
40384;BME280;26097;42.366;23.818;2023-05-03T14:20:02;94404.19;;;9.67;100.00
40384;BME280;26097;42.366;23.818;2023-05-03T14:23:06;94379.34;;;10.00;100.00
40384;BME280;26097;42.366;23.818;2023-05-03T14:26:07;94368.22;;;9.98;100.00
40384;BME280;26097;42.366;23.818;2023-05-03T14:29:07;94369.69;;;9.89;100.00
40384;BME280;26097;42.366;23.818;2023-05-03T14:32:08;94385.66;;;9.84;100.00
40384;BME280;26097;42.366;23.818;2023-05-03T14:35:09;94374.81;;;9.78;100.00
40384;BME280;26097;42.366;23.818;2023-05-03T14:38:09;94380.09;;;9.76;100.00
40384;BME280;26097;42.366;23.818;2023-05-03T14:41:10;94371.06;;;9.69;100.00
40384;BME280;26097;42.366;23.818;2023-05-03T14:44:10;94390.81;;;9.58;100.00
40384;BME280;26097;42.366;23.818;2023-05-03T14:47:10;94398.03;;;9.55;100.00
40384;BME280;26097;42.366;23.818;2023-05-03T14:50:11;94410.41;;;9.51;100.00
40384;BME280;26097;42.366;23.818;2023-05-03T14:53:11;94399.88;;;9.40;100.00
40384;BME280;26097;42.366;23.818;2023-05-03T14:56:12;94379.16;;;9.25;100.00
40384;BME280;26097;42.366;23.818;2023-05-03T14:59:12;94380.59;;;9.17;100.00
40384;BME280;26097;42.366;23.818;2023-05-03T15:02:13;94396.59;;;9.23;100.00
40384;BME280;26097;42.366;23.818;2023-05-03T15:05:13;94378.41;;;9.23;100.00
40384;BME280;26097;42.366;23.818;2023-05-03T15:08:16;94384.34;;;9.25;100.00
40384;BME280;26097;42.366;23.818;2023-05-03T15:11:16;94376.44;;;9.40;100.00
40384;BME280;26097;42.366;23.818;2023-05-03T15:14:17;94376.66;;;9.50;100.00
40384;BME280;26097;42.366;23.818;2023-05-03T15:17:18;94357.50;;;9.38;100.00
40384;BME280;26097;42.366;23.818;2023-05-03T15:20:18;94371.38;;;9.38;100.00
40384;BME280;26097;42.366;23.818;2023-05-03T15:23:19;94371.66;;;9.34;100.00
40384;BME280;26097;42.366;23.818;2023-05-03T15:26:20;94378.00;;;9.29;100.00
40384;BME280;26097;42.366;23.818;2023-05-03T15:29:23;94372.28;;;9.24;100.00
40384;BME280;26097;42.366;23.818;2023-05-03T15:32:23;94375.19;;;9.20;100.00
40384;BME280;26097;42.366;23.818;2023-05-03T15:35:24;94376.22;;;9.17;100.00
40384;BME280;26097;42.366;23.818;2023-05-03T15:38:25;94373.53;;;9.19;100.00
40384;BME280;26097;42.366;23.818;2023-05-03T15:41:25;94379.94;;;9.13;100.00
40384;BME280;26097;42.366;23.818;2023-05-03T15:44:26;94381.63;;;9.14;100.00
40384;BME280;26097;42.366;23.818;2023-05-03T15:47:26;94380.97;;;9.10;100.00
40384;BME280;26097;42.366;23.818;2023-05-03T15:50:26;94370.34;;;9.00;100.00
40384;BME280;26097;42.366;23.818;2023-05-03T15:53:27;94364.91;;;8.91;100.00
40384;BME280;26097;42.366;23.818;2023-05-03T15:56:27;94363.16;;;8.91;100.00
40384;BME280;26097;42.366;23.818;2023-05-03T15:59:28;94373.56;;;8.91;100.00
40384;BME280;26097;42.366;23.818;2023-05-03T16:02:28;94387.56;;;8.89;100.00
40384;BME280;26097;42.366;23.818;2023-05-03T16:05:30;94384.34;;;8.85;100.00
40384;BME280;26097;42.366;23.818;2023-05-03T16:08:30;94381.84;;;8.83;100.00
40384;BME280;26097;42.366;23.818;2023-05-03T16:11:31;94376.72;;;8.82;100.00
40384;BME280;26097;42.366;23.818;2023-05-03T16:14:31;94384.66;;;8.80;100.00
40384;BME280;26097;42.366;23.818;2023-05-03T16:17:32;94381.94;;;8.82;100.00
40384;BME280;26097;42.366;23.818;2023-05-03T16:20:33;94376.72;;;8.82;100.00